Terminal Aerodrome Forecast
Issued by NWS

Current Version | Previous Version | Text Only | Print | Product List | Glossary On
Versions: 1 2 3 4 5 6 7 8 9 10 11 12 13 14 15 16 17
000
FTUS43 KICT 142300
TAFRSL
TAF
KRSL 142322Z 1500/1524 15011KT P6SM VCSH OVC050
     FM150600 22010KT P6SM VCSH OVC050
     FM151100 36012KT P6SM VCSH OVC020=

USA.gov is the U.S. government's official web portal to all federal, state and local government web resources and services.